首页
METAR-TAF:

METAR-TAF

机场 :

杰克逊, 怀俄明州, 美国

纬度: 43-36N, 经度: 110-44W, 海拔: 1964米

当前天气观测

该预报发布于48分钟前的23:56 UTC
风速4节,风向多变
温度 25°C
湿度 39%
气压 1023 hPa
能見度: 16.1公里
少量云层高于7000英尺

METAR: KJAC 152356Z VRB04KT 10SM FEW070 25/10 A3021 RMK AO2 SLP170 60000 T02500100 10250 20189 58012

时间: 18:44 (00:44 UTC)

预报

该预报发布于1小时和16分钟前的23:28 UTC
预报有效从16日的 00点(UTC)到 16日的 24点(UTC)
风速10节,风向西转西北
能見度: 10公里
散云层高于8000英尺
多云层高于12000英尺
附近有阵雨
从 16日的 0500点(UTC)
风速5节,风向北转东北
能見度: 10公里
少量云层高于8000英尺
散云层高于12000英尺
从 16日的 1600点(UTC)
风速7节,风向南转西南
能見度: 10公里
少量云层高于8000英尺
散云层高于12000英尺
从 16日的 2200点(UTC)
风速7节,风向西转西南
能見度: 10公里
散云层高于9000英尺
附近有阵雨,

TAF: KJAC 152328Z 1600/1624 29010KT P6SM VCSH SCT080 BKN120 FM160500 02005KT P6SM FEW080 SCT120 FM161600 20007KT P6SM FEW080 SCT120 FM162200 25007KT P6SM VCSH SCT090

超过4000个机场的气象观测和天气预报(METAR&TAF报告)。

可查询的气象台以黄色和红色小点在地图上表示。

将鼠标移到小点上方,可查看气象台名称。

然后点击查看天气观测和预报。

如需切换地图:点击带黑十字的绿色按钮放大地图;点击带横线的绿色按钮缩小地图;或者点击绿色箭头查看邻近地区的地图。


METAR-TAF: